createdAt,value
2022-08-31T00:02:19.445Z,21
2022-08-31T00:05:19.372Z,19
2022-08-31T00:07:19.389Z,18
2022-08-31T00:10:36.894Z,19
2022-08-31T00:13:19.424Z,22
2022-08-31T00:15:19.392Z,19
2022-08-31T00:18:19.377Z,20
2022-08-31T00:21:19.386Z,18
2022-08-31T00:23:19.526Z,22
2022-08-31T00:26:19.387Z,21
2022-08-31T00:29:19.386Z,19
2022-08-31T00:31:19.437Z,21
2022-08-31T00:34:19.408Z,22
2022-08-31T00:36:19.421Z,20
2022-08-31T00:38:20.009Z,22
2022-08-31T00:41:19.384Z,24
2022-08-31T00:43:19.611Z,23
2022-08-31T00:46:19.455Z,24
2022-08-31T00:48:19.495Z,22
2022-08-31T00:51:19.405Z,25
2022-08-31T00:53:19.537Z,27
2022-08-31T00:55:19.886Z,23
2022-08-31T00:58:19.386Z,25
2022-08-31T01:00:19.436Z,27
2022-08-31T01:02:19.531Z,27
2022-08-31T01:05:19.455Z,25
2022-08-31T01:08:19.835Z,25
2022-08-31T01:10:19.465Z,27
2022-08-31T01:13:19.534Z,23
2022-08-31T01:15:19.468Z,26
2022-08-31T01:18:19.433Z,27
2022-08-31T01:20:19.497Z,23
2022-08-31T01:23:19.624Z,22
2022-08-31T01:26:19.438Z,26
2022-08-31T01:28:19.664Z,24
2022-08-31T01:31:19.484Z,30
2022-08-31T01:34:19.433Z,24
2022-08-31T01:36:19.515Z,22
2022-08-31T01:39:19.422Z,28
2022-08-31T01:41:19.440Z,23
2022-08-31T01:43:19.609Z,24
2022-08-31T01:45:19.758Z,26
2022-08-31T01:47:19.947Z,29
2022-08-31T01:50:19.458Z,25
2022-08-31T01:53:19.578Z,27
2022-08-31T01:55:19.452Z,24
2022-08-31T01:58:19.442Z,25
2022-08-31T02:01:28.076Z,25
2022-08-31T02:03:19.641Z,23
2022-08-31T02:06:19.532Z,23
2022-08-31T02:09:19.448Z,25
2022-08-31T02:12:19.444Z,26
2022-08-31T02:14:19.491Z,23
2022-08-31T02:17:19.472Z,26
2022-08-31T02:20:19.464Z,26
2022-08-31T02:22:19.502Z,23
2022-08-31T02:25:19.490Z,26
2022-08-31T02:28:19.438Z,25
2022-08-31T02:30:19.485Z,26
2022-08-31T02:32:19.971Z,24
2022-08-31T02:35:19.514Z,23
2022-08-31T02:38:19.478Z,25
2022-08-31T02:41:19.496Z,25
2022-08-31T02:43:25.022Z,26
2022-08-31T02:46:19.545Z,26
2022-08-31T02:49:19.457Z,27
2022-08-31T02:51:19.509Z,28
2022-08-31T02:54:19.448Z,22
2022-08-31T02:57:19.472Z,24
2022-08-31T03:00:19.438Z,21
2022-08-31T03:02:19.532Z,26
2022-08-31T03:05:19.488Z,20
2022-08-31T03:07:19.571Z,22
2022-08-31T03:10:19.464Z,23
2022-08-31T03:13:19.716Z,23
2022-08-31T03:15:19.490Z,23
2022-08-31T03:18:19.511Z,25
2022-08-31T03:21:19.506Z,26
2022-08-31T03:24:19.761Z,23
2022-08-31T03:27:19.476Z,26
2022-08-31T03:30:19.482Z,25
2022-08-31T03:32:19.501Z,25
2022-08-31T03:35:19.486Z,23
2022-08-31T03:38:19.468Z,25
2022-08-31T03:41:19.500Z,25
2022-08-31T03:45:24.039Z,23
2022-08-31T03:46:19.528Z,29
2022-08-31T03:48:19.485Z,26
2022-08-31T03:51:19.522Z,25
2022-08-31T03:54:19.526Z,29
2022-08-31T03:57:19.499Z,24
2022-08-31T03:59:19.517Z,23
2022-08-31T04:02:19.564Z,26
2022-08-31T04:04:19.535Z,28
2022-08-31T04:07:19.543Z,27
2022-08-31T04:10:19.514Z,26
2022-08-31T04:12:19.526Z,28
2022-08-31T04:15:19.488Z,24
2022-08-31T04:17:19.466Z,27
2022-08-31T04:19:19.481Z,28
2022-08-31T04:22:19.483Z,27
2022-08-31T04:24:19.539Z,27
2022-08-31T04:27:19.446Z,26
2022-08-31T04:29:19.477Z,29
2022-08-31T04:32:19.491Z,29
2022-08-31T04:34:19.498Z,26
2022-08-31T04:36:19.486Z,25
2022-08-31T04:38:19.503Z,25
2022-08-31T04:41:19.475Z,24
2022-08-31T04:44:20.259Z,28
2022-08-31T04:47:19.463Z,27
2022-08-31T04:49:19.512Z,25
2022-08-31T04:51:19.495Z,27
2022-08-31T04:54:19.520Z,27
2022-08-31T04:56:19.514Z,26
2022-08-31T04:59:19.502Z,28
2022-08-31T05:02:19.544Z,26
2022-08-31T05:04:19.530Z,26
2022-08-31T05:07:19.526Z,21
2022-08-31T05:10:19.498Z,27
2022-08-31T05:12:19.575Z,27
2022-08-31T05:15:19.495Z,31
2022-08-31T05:17:19.491Z,30
2022-08-31T05:19:19.500Z,26
2022-08-31T05:22:19.506Z,30
2022-08-31T05:24:19.520Z,25
2022-08-31T05:27:19.528Z,29
2022-08-31T05:29:19.535Z,27
2022-08-31T05:32:19.538Z,30
2022-08-31T05:35:19.502Z,29
2022-08-31T05:37:19.531Z,24
2022-08-31T05:39:19.557Z,27
2022-08-31T05:42:19.535Z,31
2022-08-31T05:44:19.542Z,29
2022-08-31T05:47:19.554Z,28
2022-08-31T05:50:19.501Z,26
2022-08-31T05:52:19.547Z,24
2022-08-31T05:55:51.872Z,23
2022-08-31T05:58:19.564Z,23
2022-08-31T06:01:19.554Z,24
2022-08-31T06:04:19.569Z,21
2022-08-31T06:07:19.691Z,22
2022-08-31T06:10:19.570Z,24
2022-08-31T06:12:19.552Z,22
2022-08-31T06:14:19.560Z,22
2022-08-31T06:17:19.541Z,24
2022-08-31T06:20:19.556Z,23
2022-08-31T06:22:19.558Z,19
2022-08-31T06:24:19.602Z,21
2022-08-31T06:27:19.572Z,18
2022-08-31T06:30:19.594Z,24
2022-08-31T06:32:19.632Z,20
2022-08-31T06:35:19.580Z,21
2022-08-31T06:38:19.579Z,23
2022-08-31T06:40:19.638Z,22
2022-08-31T06:43:51.886Z,25
2022-08-31T06:46:19.672Z,22
2022-08-31T06:48:19.593Z,21
2022-08-31T06:51:19.526Z,19
2022-08-31T06:53:19.839Z,20
2022-08-31T06:56:20.168Z,20
2022-08-31T06:59:19.572Z,20
2022-08-31T07:01:20.497Z,21
2022-08-31T07:04:19.558Z,23
2022-08-31T07:07:19.558Z,21
2022-08-31T07:09:19.566Z,22
2022-08-31T07:11:19.572Z,21
2022-08-31T07:14:19.537Z,21
2022-08-31T07:16:19.649Z,23
2022-08-31T07:19:19.598Z,22
2022-08-31T07:22:19.604Z,22
2022-08-31T07:25:19.576Z,22
2022-08-31T07:27:19.576Z,25
2022-08-31T07:29:19.626Z,23
2022-08-31T07:32:19.545Z,21
2022-08-31T07:34:19.564Z,22
2022-08-31T07:36:19.563Z,23
2022-08-31T07:39:19.614Z,24
2022-08-31T07:42:19.538Z,21
2022-08-31T07:44:19.540Z,23
2022-08-31T07:47:19.604Z,22
2022-08-31T07:49:19.624Z,21
2022-08-31T07:52:19.633Z,20
2022-08-31T07:55:19.607Z,23
2022-08-31T07:58:19.570Z,22
2022-08-31T08:01:19.619Z,22
2022-08-31T08:04:19.606Z,23
2022-08-31T08:06:19.629Z,25
2022-08-31T08:09:24.273Z,24
2022-08-31T08:11:19.615Z,22
2022-08-31T08:13:19.730Z,19
2022-08-31T08:15:19.628Z,23
2022-08-31T08:18:19.603Z,22
2022-08-31T08:21:20.138Z,24
2022-08-31T08:23:25.866Z,23
2022-08-31T08:25:21.395Z,24
2022-08-31T08:28:38.506Z,21
2022-08-31T08:30:19.639Z,26
2022-08-31T08:33:19.755Z,21
2022-08-31T08:36:19.608Z,20
2022-08-31T08:39:19.617Z,23
2022-08-31T08:42:19.621Z,26
2022-08-31T08:45:19.620Z,24
2022-08-31T08:47:20.794Z,27
2022-08-31T08:50:19.695Z,28
2022-08-31T08:52:19.586Z,28
2022-08-31T08:54:19.616Z,26
2022-08-31T08:57:19.610Z,36
2022-08-31T09:00:19.641Z,35
2022-08-31T09:03:19.897Z,32
2022-08-31T09:06:19.613Z,28
2022-08-31T09:08:19.619Z,26
2022-08-31T09:10:19.703Z,28
2022-08-31T09:13:19.799Z,31
2022-08-31T09:15:19.639Z,33
2022-08-31T09:18:19.573Z,29
2022-08-31T09:21:19.620Z,31
2022-08-31T09:24:19.566Z,27
2022-08-31T09:26:19.627Z,32
2022-08-31T09:29:19.623Z,32
2022-08-31T09:32:19.604Z,30
2022-08-31T09:35:19.603Z,30
2022-08-31T09:38:19.589Z,31
2022-08-31T09:41:19.608Z,29
2022-08-31T09:44:19.607Z,24
2022-08-31T09:46:19.675Z,25
2022-08-31T09:49:19.677Z,25
2022-08-31T09:52:19.604Z,20
2022-08-31T09:54:19.653Z,51
2022-08-31T09:57:19.695Z,22
2022-08-31T10:00:19.648Z,17
2022-08-31T10:03:19.830Z,21
2022-08-31T10:06:19.620Z,13
2022-08-31T10:08:19.784Z,12
2022-08-31T10:11:19.688Z,14
2022-08-31T10:13:19.818Z,13
2022-08-31T10:15:19.698Z,15
2022-08-31T10:17:19.696Z,16
2022-08-31T10:20:19.645Z,24
2022-08-31T10:23:19.749Z,20
2022-08-31T10:25:19.654Z,18
2022-08-31T10:27:19.667Z,20
2022-08-31T10:30:19.643Z,19
2022-08-31T10:33:19.788Z,17
2022-08-31T10:36:19.623Z,18
2022-08-31T10:39:19.652Z,19
2022-08-31T10:42:19.634Z,15
2022-08-31T10:44:19.698Z,13
2022-08-31T10:47:22.757Z,12
2022-08-31T10:50:19.604Z,12
2022-08-31T10:52:19.621Z,12
2022-08-31T10:54:19.643Z,11
2022-08-31T10:57:21.436Z,12
2022-08-31T10:59:19.646Z,13
2022-08-31T11:02:19.623Z,14
2022-08-31T11:04:19.674Z,14
2022-08-31T11:06:19.641Z,13
2022-08-31T11:09:19.650Z,11
2022-08-31T11:11:19.666Z,19
2022-08-31T11:13:19.793Z,17
2022-08-31T11:16:19.682Z,16
2022-08-31T11:19:19.672Z,16
2022-08-31T11:22:19.645Z,14
2022-08-31T11:24:19.656Z,16
2022-08-31T11:26:19.681Z,16
2022-08-31T11:29:19.642Z,14
2022-08-31T11:31:19.765Z,16
2022-08-31T11:34:19.647Z,16
2022-08-31T11:36:19.687Z,17
2022-08-31T11:39:19.643Z,17
2022-08-31T11:41:19.698Z,17
2022-08-31T11:44:19.961Z,18
2022-08-31T11:47:19.673Z,16
2022-08-31T11:49:19.670Z,14
2022-08-31T11:52:19.692Z,18
2022-08-31T11:55:19.686Z,18
2022-08-31T11:57:19.710Z,20
2022-08-31T12:00:19.768Z,16
2022-08-31T12:03:20.035Z,20
2022-08-31T12:06:19.652Z,16
2022-08-31T12:08:19.691Z,15
2022-08-31T12:11:19.667Z,20
2022-08-31T12:13:20.015Z,21
2022-08-31T12:15:19.733Z,18
2022-08-31T12:18:19.648Z,21
2022-08-31T12:20:19.700Z,17
2022-08-31T12:23:28.685Z,21
2022-08-31T12:26:19.686Z,23
2022-08-31T12:29:19.720Z,19
2022-08-31T12:32:19.669Z,19
2022-08-31T12:34:19.715Z,23
2022-08-31T12:37:19.667Z,22
2022-08-31T12:39:19.676Z,20
2022-08-31T12:42:19.650Z,23
2022-08-31T12:44:19.685Z,22
2022-08-31T12:46:19.711Z,24
2022-08-31T12:48:19.701Z,23
2022-08-31T12:51:19.663Z,30
2022-08-31T12:54:19.674Z,22
2022-08-31T12:56:20.109Z,33
2022-08-31T12:59:19.684Z,34
2022-08-31T13:02:19.707Z,36
2022-08-31T13:04:19.722Z,35
2022-08-31T13:07:19.649Z,30
2022-08-31T13:09:19.665Z,28
2022-08-31T13:12:19.667Z,26
2022-08-31T13:15:19.676Z,27
2022-08-31T13:17:19.657Z,26
2022-08-31T13:19:19.659Z,26
2022-08-31T13:22:19.663Z,28
2022-08-31T13:24:19.677Z,26
2022-08-31T13:27:19.640Z,29
2022-08-31T13:29:22.759Z,28
2022-08-31T13:33:20.068Z,28
2022-08-31T13:36:19.683Z,28
2022-08-31T13:39:19.682Z,27
2022-08-31T13:42:19.728Z,25
2022-08-31T13:45:19.702Z,24
2022-08-31T13:47:19.724Z,21
2022-08-31T13:50:19.681Z,21
2022-08-31T13:52:19.692Z,21
2022-08-31T13:55:19.719Z,19
2022-08-31T13:58:19.675Z,20
2022-08-31T14:01:19.800Z,21
2022-08-31T14:04:19.702Z,19
2022-08-31T14:06:19.890Z,21
2022-08-31T14:09:19.712Z,19
2022-08-31T14:12:19.685Z,21
2022-08-31T14:15:19.740Z,25
2022-08-31T14:18:27.247Z,20
2022-08-31T14:20:19.730Z,21
2022-08-31T14:22:19.698Z,19
2022-08-31T14:24:19.706Z,19
2022-08-31T14:27:19.708Z,24
2022-08-31T14:29:19.721Z,26
2022-08-31T14:32:19.702Z,22
2022-08-31T14:34:19.713Z,25
2022-08-31T14:37:20.007Z,24
2022-08-31T14:39:19.725Z,22
2022-08-31T14:42:19.696Z,24
2022-08-31T14:44:19.674Z,25
2022-08-31T14:46:19.781Z,22
2022-08-31T14:48:19.895Z,20
2022-08-31T14:50:19.696Z,28
2022-08-31T14:53:19.770Z,23
2022-08-31T14:55:19.732Z,23
2022-08-31T14:58:19.865Z,23
2022-08-31T15:01:20.101Z,24
2022-08-31T15:04:19.678Z,25
2022-08-31T15:07:19.718Z,23
2022-08-31T15:10:19.675Z,25
2022-08-31T15:12:19.710Z,24
2022-08-31T15:14:19.733Z,23
2022-08-31T15:17:20.204Z,25
2022-08-31T15:19:19.751Z,26
2022-08-31T15:22:19.749Z,24
2022-08-31T15:25:19.755Z,23
2022-08-31T15:27:19.766Z,24
2022-08-31T15:30:19.985Z,24
2022-08-31T15:33:19.831Z,22
2022-08-31T15:36:19.760Z,24
2022-08-31T15:38:19.875Z,26
2022-08-31T15:40:19.830Z,28
2022-08-31T15:42:19.755Z,28
2022-08-31T15:45:19.756Z,27
2022-08-31T15:47:19.784Z,26
2022-08-31T15:50:19.769Z,22
2022-08-31T15:52:19.763Z,25
2022-08-31T15:55:19.765Z,29
2022-08-31T15:58:24.614Z,27
2022-08-31T16:00:19.767Z,26
2022-08-31T16:03:19.714Z,20
2022-08-31T16:05:19.795Z,33
2022-08-31T16:08:19.861Z,30
2022-08-31T16:10:20.449Z,24
2022-08-31T16:13:19.731Z,27
2022-08-31T16:16:19.806Z,27
2022-08-31T16:18:19.876Z,27
2022-08-31T16:20:19.757Z,27
2022-08-31T16:22:19.758Z,28
2022-08-31T16:25:20.412Z,26
2022-08-31T16:27:19.759Z,27
2022-08-31T16:30:19.779Z,26
2022-08-31T16:32:19.772Z,23
2022-08-31T16:35:19.762Z,27
2022-08-31T16:38:19.892Z,25
2022-08-31T16:40:19.856Z,23
2022-08-31T16:43:19.772Z,26
2022-08-31T16:45:19.771Z,32
2022-08-31T16:48:19.806Z,25
2022-08-31T16:50:19.809Z,26
2022-08-31T16:53:52.199Z,27
2022-08-31T16:56:19.779Z,28
2022-08-31T16:59:19.784Z,26
2022-08-31T17:02:19.809Z,28
2022-08-31T17:05:19.812Z,28
2022-08-31T17:08:19.896Z,32
2022-08-31T17:11:19.770Z,28
2022-08-31T17:13:19.828Z,32
2022-08-31T17:16:19.798Z,29
2022-08-31T17:19:19.790Z,26
2022-08-31T17:21:19.861Z,31
2022-08-31T17:24:19.809Z,30
2022-08-31T17:27:19.781Z,28
2022-08-31T17:29:19.817Z,35
2022-08-31T17:32:19.780Z,34
2022-08-31T17:34:19.966Z,32
2022-08-31T17:37:19.810Z,30
2022-08-31T17:40:20.205Z,30
2022-08-31T17:43:19.813Z,30
2022-08-31T17:45:19.821Z,30
2022-08-31T17:48:19.904Z,32
2022-08-31T17:50:19.838Z,29
2022-08-31T17:53:19.798Z,31
2022-08-31T17:56:23.193Z,30
2022-08-31T17:58:19.916Z,34
2022-08-31T18:00:19.879Z,31
2022-08-31T18:03:19.773Z,33
2022-08-31T18:05:19.887Z,34
2022-08-31T18:08:19.964Z,38
2022-08-31T18:10:19.809Z,36
2022-08-31T18:12:19.810Z,39
2022-08-31T18:15:19.776Z,37
2022-08-31T18:17:19.795Z,30
2022-08-31T18:20:19.819Z,31
2022-08-31T18:22:19.950Z,31
2022-08-31T18:24:19.846Z,35
2022-08-31T18:27:19.812Z,36
2022-08-31T18:30:19.858Z,37
2022-08-31T18:33:19.801Z,36
2022-08-31T18:35:19.823Z,37
2022-08-31T18:37:19.823Z,35
2022-08-31T18:40:19.858Z,35
2022-08-31T18:42:19.809Z,34
2022-08-31T18:44:19.809Z,33
2022-08-31T18:47:19.824Z,36
2022-08-31T18:49:19.802Z,31
2022-08-31T18:51:19.830Z,34
2022-08-31T18:54:19.847Z,35
2022-08-31T18:57:19.837Z,30
2022-08-31T18:59:19.823Z,32
2022-08-31T19:02:51.719Z,30
2022-08-31T19:05:19.825Z,28
2022-08-31T19:08:19.780Z,31
2022-08-31T19:10:19.822Z,32
2022-08-31T19:12:19.843Z,35
2022-08-31T19:15:19.811Z,32
2022-08-31T19:17:19.815Z,33
2022-08-31T19:19:19.796Z,36
2022-08-31T19:22:20.305Z,36
2022-08-31T19:25:19.828Z,36
2022-08-31T19:28:19.975Z,37
2022-08-31T19:31:20.849Z,35
2022-08-31T19:33:19.940Z,35
2022-08-31T19:36:19.841Z,32
2022-08-31T19:39:20.250Z,31
2022-08-31T19:41:19.830Z,30
2022-08-31T19:43:47.273Z,33
2022-08-31T19:46:19.902Z,33
2022-08-31T19:48:19.821Z,35
2022-08-31T19:51:19.921Z,33
2022-08-31T19:54:19.806Z,36
2022-08-31T19:57:19.805Z,34
2022-08-31T19:59:19.816Z,33
2022-08-31T20:01:19.884Z,36
2022-08-31T20:04:19.817Z,31
2022-08-31T20:07:19.847Z,29
2022-08-31T20:10:19.830Z,32
2022-08-31T20:13:19.957Z,31
2022-08-31T20:15:19.810Z,33
2022-08-31T20:18:19.848Z,35
2022-08-31T20:21:19.821Z,32
2022-08-31T20:23:20.080Z,35
2022-08-31T20:26:19.848Z,37
2022-08-31T20:29:19.807Z,34
2022-08-31T20:31:19.856Z,33
2022-08-31T20:33:20.007Z,35
2022-08-31T20:36:19.866Z,33
2022-08-31T20:39:19.845Z,32
2022-08-31T20:42:19.844Z,30
2022-08-31T20:44:19.880Z,34
2022-08-31T20:47:19.865Z,30
2022-08-31T20:50:19.855Z,36
2022-08-31T20:53:43.473Z,40
2022-08-31T20:56:19.898Z,37
2022-08-31T20:59:19.891Z,33
2022-08-31T21:01:20.174Z,33
2022-08-31T21:04:19.875Z,30
2022-08-31T21:07:19.860Z,30
2022-08-31T21:10:20.966Z,37
2022-08-31T21:12:19.905Z,31
2022-08-31T21:15:19.886Z,35
2022-08-31T21:18:19.875Z,36
2022-08-31T21:20:19.885Z,36
2022-08-31T21:23:20.094Z,34
2022-08-31T21:25:19.895Z,33
2022-08-31T21:28:19.935Z,34
2022-08-31T21:31:27.558Z,34
2022-08-31T21:33:20.185Z,33
2022-08-31T21:36:19.862Z,30
2022-08-31T21:38:19.884Z,34
2022-08-31T21:42:19.916Z,32
2022-08-31T21:45:19.892Z,35
2022-08-31T21:48:22.114Z,36
2022-08-31T21:50:19.909Z,32
2022-08-31T21:53:20.021Z,32
2022-08-31T21:55:19.923Z,31
2022-08-31T21:58:19.911Z,33
2022-08-31T22:01:19.977Z,31
2022-08-31T22:04:19.887Z,29
2022-08-31T22:07:19.877Z,32
2022-08-31T22:09:19.890Z,31
2022-08-31T22:11:20.010Z,31
2022-08-31T22:14:19.911Z,30
2022-08-31T22:16:20.098Z,35
2022-08-31T22:18:46.359Z,33
2022-08-31T22:20:19.964Z,33
2022-08-31T22:23:19.952Z,29
2022-08-31T22:26:19.888Z,31
2022-08-31T22:28:20.356Z,36
2022-08-31T22:31:19.924Z,33
2022-08-31T22:34:19.863Z,30
2022-08-31T22:37:19.885Z,33
2022-08-31T22:39:19.922Z,31
2022-08-31T22:42:19.906Z,33
2022-08-31T22:45:19.930Z,32
2022-08-31T22:47:19.920Z,29
2022-08-31T22:50:19.864Z,30
2022-08-31T22:52:19.905Z,30
2022-08-31T22:55:19.939Z,29
2022-08-31T22:58:20.059Z,33
2022-08-31T23:01:19.959Z,28
2022-08-31T23:03:19.941Z,32
2022-08-31T23:06:19.897Z,30
2022-08-31T23:08:20.043Z,30
2022-08-31T23:10:19.889Z,32
2022-08-31T23:13:19.923Z,28
2022-08-31T23:16:19.882Z,32
2022-08-31T23:18:20.047Z,30
2022-08-31T23:20:19.874Z,33
2022-08-31T23:23:19.883Z,32
2022-08-31T23:25:19.876Z,29
2022-08-31T23:27:19.937Z,31
2022-08-31T23:30:19.906Z,32
2022-08-31T23:33:19.891Z,28
2022-08-31T23:35:19.905Z,29
2022-08-31T23:38:20.084Z,34
2022-08-31T23:41:21.947Z,32
2022-08-31T23:43:19.930Z,33
2022-08-31T23:46:19.983Z,26
2022-08-31T23:48:20.057Z,28
2022-08-31T23:51:19.907Z,30
2022-08-31T23:53:19.930Z,28
2022-08-31T23:55:19.943Z,31
2022-08-31T23:57:31.941Z,28
